Baker City, OR

12:48 PM PDT on August 22, 2014 (GMT -0700)
Baker City Municipal | Change Station
CLOSE
Current Station
Airport
Location: Baker,
Elevation: 3373 ft
Nearby Weather Stations

Elev 3373 ft 44.84 °N, 117.81 °W | Updated 55 minutes ago

Clear
Clear
71 °F
Feels Like 71 °F
N
21
Wind Variable Wind from NW
Gusts 25 mph

Today
High -- | Low -- °F
--% Chance of Precip.
Yesterday
High -- | Low -- °F
Precip. -- in
6:01 AM 7:45 PM
Waning Crescent, 7% visible
Pressure 29.92 in
Visibility 10.0 miles
Clouds Clear
Dew Point 40 °F
Humidity 32%
Rainfall 0.00 in
Snow Depth 0 in
UV 9 out of 12
Pollen 5.50 out of 12
Air Quality Not available.
Flu Activity Not available.
METAR KBKE 221853Z AUTO 32018G22KT 10SM CLR 22/04 A2997 RMK AO2 SLP130 T02170044 TSNO $

More Conditions Fewer Conditions

Pressure 29.92 in
Visibility 10.0 miles
Clouds Clear
Dew Point 40 °F
Humidity 32%
Rainfall 0.00 in
Snow Depth 0 in
UV 9 out of 12
Pollen 5.50 out of 12
Air Quality Not available.
Flu Activity Not available.
METAR KBKE 221853Z AUTO 32018G22KT 10SM CLR 22/04 A2997 RMK AO2 SLP130 T02170044 TSNO $

More Conditions Fewer Conditions

10-Day Weather Forecast

Almanac

Astronomy

Aug. 22, 2014 Rise Set
Actual Time 6:01 AM PDT 7:45 PM PDT
Civil Twilight 5:30 AM PDT 8:16 PM PDT
Nautical Twilight 4:52 AM PDT 8:54 PM PDT
Astronomical Twilight 4:11 AM PDT 9:35 PM PDT
Moon 3:25 AM PDT 5:59 PM PDT
Length of Visible Light 14h 45m
Length of Day
13h 43m
Tomorrow will be 2m 54s shorter.
Waning Crescent, 7% of the Moon is Illuminated
Today
Waning Crescent
Aug 25
New
Sep 2
First Quarter
Sep 8
Full
Sep 15
Last Quarter

Today's Extremes

State Highs State Lows

Community

WunderPhotos

Upload Photos

1,746,227 photos uploaded!

Nearby

Snow Depth

Station Depth Elevation
Bourne 0 in 5800 ft
Wolf Creek 0 in 5700 ft
Tipton 0 in 5150 ft
Schneider Meadows 0 in 5400 ft
Blue Mountain Spring 0 in 5900 ft

Earthquake Activity

City Distance Mag. Time & Date
No recent earthquake activity has been reported nearby.
Minimum magnitude displayed is 2.5.

Coastal Water Temperatures

Place Temperature
No Stations Reporting

Nearby Weather Stations